Boyne City, MI (49712)

2:38 PM EST on February 06, 2016 (GMT -0500)
3.4 mi SSW of Boyne City | | Change Station
CLOSE
Current Station
Personal Weather Station
Location: Boyne City, MI
Elevation: 820 ft
Nearby Weather Stations

Elev 820 ft 45.17 °N, 85.04 °W | Updated 2 seconds ago

Overcast
Overcast
29.5 °F
Feels Like 21 °F
N
9.6
Wind Variable Wind from WNW
Gusts 9.6 mph

Today
High -- | Low -- °F
--% Chance of Precip.
Yesterday
High -- | Low -- °F
Precip. -- in
Pressure 30.09 in
Visibility 10.0 miles
Clouds Overcast 2200 ft
Windchill 21 °F
Dew Point 24 °F
Humidity 78%
Rainfall 0.00 in
Snow Depth Not available.
7:54 AM 5:54 PM
Waning Crescent, 4% visible
METAR KCVX 061934Z AUTO 25010G17KT 10SM OVC022 M01/M05 A3009 RMK AO2 T10121050
Pressure 30.09 in
Visibility 10.0 miles
Clouds Overcast 2200 ft
Windchill 21 °F
Dew Point 24 °F
Humidity 78%
Rainfall 0.00 in
Snow Depth Not available.
7:54 AM 5:54 PM
Waning Crescent, 4% visible
METAR KCVX 061934Z AUTO 25010G17KT 10SM OVC022 M01/M05 A3009 RMK AO2 T10121050

10-Day Weather Forecast

Almanac

Astronomy

Feb. 06, 2016 Rise Set
Actual Time
Civil Twilight
Nautical Twilight
Astronomical Twilight
Moon
Length of Visible Light
Length of Day
Tomorrow will be .
, % of the Moon is Illuminated

Today's Extremes

State Highs State Lows

Community

WunderPhotos

Upload Photos

1,891,037 photos uploaded!

WunderBlog® & News

Nearby

Air Quality

  Air Quality AQ Index Pollutant
Not available.

Snow Depth

Station Depth Elevation

Earthquake Activity

City Distance Mag. Time & Date
Minimum magnitude displayed is 2.5.

Coastal Water Temperatures

Place Temperature

Stations

Nearby Weather Stations

Station Location Temp. Windchill Dew Point Humidity Wind Precip. Elev Updated Type
                   

Watches & Warnings

There are currently no watches in effect.